»·PEaware :: WAT169 KSAN-KLAS

WAT169 :: KSAN-KLAS

FLIGHT INFORMATION

Flight Status: Arrived
Operator:
Walker Air Transport
More flights by this operator :: More flights under this callsign
Pilot: Marty P. (27464)
Aircraft: BOEING 737-800
(B738)
More flights by this aircraft type
Origin: KSAN San Diego Intl-Lindbergh
United States
Destination: KLAS McCarran Intl
United States
More flights between these airports :: More routes between these airports
Route: PADRZ2 CHKNN SEBBY YELAH MISEN KEPEC6
File this flight plan on PilotEdge
Remarks:
Altitude:
(Current/Filed)
31,000ft
Speed:
(Current/Filed)
480kts
Departed: 02-Aug-20 09:45 PM
Arrived: 02-Aug-20 10:37 PM
Distance/Time
Traveled:
225nm/0:51
Distance/Time
To Go:
Arrived

Flight Plot

Page will automatically refresh every two minutes.

Flight plan parsing failed; only flown route is shown


Map Options




Map Legend


Flown Route
Filed Route
Departure Airport
Arrival Airport
Navaid (VOR, NDB)
Fix

Horizontal Profiles

Position Reports

Time Latitude Longitude Heading Altitude Ground
Speed
02-Aug-20 21:25 32.733216 -117.196883 134 27ft 0kts
02-Aug-20 21:26 32.733216 -117.196884 134 27ft 0kts
02-Aug-20 21:27 32.733216 -117.196884 134 27ft 0kts
02-Aug-20 21:28 32.733216 -117.196884 134 27ft 0kts
02-Aug-20 21:29 32.733216 -117.196884 134 27ft 0kts
02-Aug-20 21:30 32.733216 -117.196884 134 27ft 0kts
02-Aug-20 21:31 32.733216 -117.196884 134 27ft 0kts
02-Aug-20 21:32 32.733216 -117.196884 134 27ft 0kts
02-Aug-20 21:33 32.733216 -117.196884 134 27ft 0kts
02-Aug-20 21:34 32.733216 -117.196884 134 27ft 0kts
02-Aug-20 21:35 32.733283 -117.197072 81 27ft 2kts
02-Aug-20 21:36 32.733464 -117.197136 19 27ft 2kts
02-Aug-20 21:37 32.733537 -117.197104 20 27ft 0kts
02-Aug-20 21:38 32.733578 -117.197086 18 27ft 2kts
02-Aug-20 21:39 32.733648 -117.194285 106 27ft 16kts
02-Aug-20 21:40 32.732404 -117.189216 105 27ft 17kts
02-Aug-20 21:41 32.731114 -117.183847 106 27ft 15kts
02-Aug-20 21:42 32.730015 -117.179326 106 27ft 16kts
02-Aug-20 21:43 32.729544 -117.176648 76 27ft 3kts
02-Aug-20 21:44 32.733324 -117.188792 285 28ft 152kts
02-Aug-20 21:45 32.756871 -117.245994 305 2189ft 223kts
02-Aug-20 21:46 32.794093 -117.310476 304 5742ft 237kts
02-Aug-20 21:47 32.834942 -117.373465 309 9125ft 246kts
02-Aug-20 21:48 32.879005 -117.441552 307 11279ft 294kts
02-Aug-20 21:49 32.936900 -117.531517 307 13204ft 370kts
02-Aug-20 21:50 33.000580 -117.630899 307 16308ft 390kts
02-Aug-20 21:51 33.070089 -117.734054 315 19021ft 410kts
02-Aug-20 21:52 33.157308 -117.824655 319 21435ft 426kts
02-Aug-20 21:53 33.249998 -117.917057 321 23532ft 442kts
02-Aug-20 21:54 33.346638 -118.011113 320 25431ft 455kts
02-Aug-20 21:55 33.446560 -118.108590 320 27004ft 470kts
02-Aug-20 21:56 33.550538 -118.204825 327 28840ft 473kts
02-Aug-20 21:57 33.662217 -118.275914 333 31027ft 466kts
02-Aug-20 21:58 33.790240 -118.294106 20 31020ft 487kts
02-Aug-20 21:59 33.865314 -118.169097 79 31025ft 490kts
02-Aug-20 22:00 33.933682 -118.033891 48 31026ft 489kts
02-Aug-20 22:01 34.015426 -117.902815 54 31027ft 490kts
02-Aug-20 22:02 34.095451 -117.769998 51 31027ft 490kts
02-Aug-20 22:03 34.181326 -117.643542 50 31051ft 492kts
02-Aug-20 22:04 34.268343 -117.516078 49 31072ft 492kts
02-Aug-20 22:05 34.355274 -117.388438 49 31073ft 492kts
02-Aug-20 22:06 34.440602 -117.262757 50 31073ft 491kts
02-Aug-20 22:07 34.527181 -117.134781 50 31072ft 491kts
02-Aug-20 22:08 34.613438 -117.006806 50 31093ft 490kts
02-Aug-20 22:09 34.698854 -116.879614 49 31117ft 477kts
02-Aug-20 22:10 34.782304 -116.754917 49 31084ft 478kts
02-Aug-20 22:11 34.869970 -116.633920 41 31004ft 477kts
02-Aug-20 22:12 34.971084 -116.531598 37 29870ft 479kts
02-Aug-20 22:13 35.075906 -116.429694 37 25433ft 466kts
02-Aug-20 22:14 35.162676 -116.327697 44 23984ft 425kts
02-Aug-20 22:15 35.245125 -116.225043 44 23342ft 421kts
02-Aug-20 22:16 35.325672 -116.124053 44 20799ft 407kts
02-Aug-20 22:17 35.403086 -116.026533 45 18704ft 389kts
02-Aug-20 22:18 35.479024 -115.930466 44 17503ft 400kts
02-Aug-20 22:19 35.554654 -115.834558 44 15707ft 387kts
02-Aug-20 22:20 35.628641 -115.740464 44 13903ft 378kts
02-Aug-20 22:21 35.700361 -115.648726 44 13030ft 374kts
02-Aug-20 22:22 35.785950 -115.580432 14 13027ft 369kts
02-Aug-20 22:23 35.887770 -115.568242 1 13024ft 367kts
02-Aug-20 22:24 35.974293 -115.526246 44 12860ft 318kts
02-Aug-20 22:25 36.014046 -115.430100 67 11303ft 317kts
02-Aug-20 22:26 36.028251 -115.334599 94 10753ft 275kts
02-Aug-20 22:27 36.021410 -115.240546 96 9500ft 278kts
02-Aug-20 22:28 36.014675 -115.144857 96 8046ft 284kts
02-Aug-20 22:29 36.008413 -115.049246 96 6537ft 270kts
02-Aug-20 22:30 36.003410 -114.963902 95 5111ft 223kts
02-Aug-20 22:31 36.023682 -114.911648 5 5076ft 199kts
02-Aug-20 22:32 36.071071 -114.931648 286 4999ft 190kts
02-Aug-20 22:33 36.073598 -114.996088 267 4259ft 178kts
02-Aug-20 22:34 36.073626 -115.051719 267 3403ft 158kts
02-Aug-20 22:35 36.073656 -115.105668 268 2553ft 155kts
02-Aug-20 22:36 36.073649 -115.141592 272 2191ft 20kts
02-Aug-20 22:37 36.076299 -115.146557 0 2191ft 15kts
02-Aug-20 22:38 36.079639 -115.147597 25 2191ft 4kts
02-Aug-20 22:39 36.079913 -115.147057 63 2191ft 0kts
02-Aug-20 22:40 36.079913 -115.147057 63 2191ft 0kts
02-Aug-20 22:41 36.079913 -115.147057 63 2191ft 0kts
02-Aug-20 22:42 36.079913 -115.147057 63 2191ft 0kts

Navigation Log

Ident Type
Flight plan parsing failed, navigation log unavailable